Chia-i, Taiwan
Current Conditions -  °F | °C
As of 5:00 PM on Sunday 21 Dec 2014 (Local Time) from RCMQ Reporting Station
Scattered Clouds Scattered Clouds  
Wind Chill: 54°   Ceiling: Unl
Heat Index: 54°   Visibility: 6mi
Dew Point: 48°   Wind: 22mph
Humidity: 82%   Direction: 10°N
Pressure: 30.15"   Gusts: 33mph
Location:  23.48°N, 120.44°E
Report Text: RCMQ 210900Z 01019G29KT 9999 SCT010 12/09 Q1021 RMK A3015
Loading
Personal Weather Stations






























Interactive Weather Map New forecast layout! Learn more

10-Day Weather Forecast

Advertisements
Track Severe Weather on mobile